Time;durP1;ratioP1;P1;durP2;ratioP2;P2;SDS_P1;SDS_P2;PMS_P1;PMS_P2;Temp;Humidity;BMP_temperature;BMP_pressure;BME280_temperature;BME280_humidity;BME280_pressure;Samples;Min_cycle;Max_cycle;Signal;HPM_P1;HPM_P2
2024/03/19 00:00:37;;;;;;;9.40;8.60;;;10.80;99.90;;;;;;5040652;28;20488;-83
2024/03/19 00:03:04;;;;;;;9.03;8.33;;;10.80;96.90;;;;;;5040325;28;20519;-83
2024/03/19 00:05:31;;;;;;;8.13;7.63;;;10.70;99.90;;;;;;5022694;28;20472;-83
2024/03/19 00:07:59;;;;;;;9.60;8.90;;;10.70;99.90;;;;;;5039803;28;20459;-82
2024/03/19 00:10:27;;;;;;;9.27;8.57;;;10.70;99.90;;;;;;5041298;28;21057;-81
2024/03/19 00:12:55;;;;;;;10.03;9.33;;;10.70;99.90;;;;;;5046588;28;21255;-81
2024/03/19 00:15:22;;;;;;;10.43;9.50;;;10.70;99.90;;;;;;5040636;28;21288;-81
2024/03/19 00:17:50;;;;;;;9.80;8.90;;;10.70;1.00;;;;;;5040808;28;20452;-81
2024/03/19 00:20:17;;;;;;;10.50;9.70;;;10.70;1.00;;;;;;5041962;28;20528;-80
2024/03/19 00:22:44;;;;;;;8.60;8.00;;;10.70;1.00;;;;;;5041325;28;20536;-81
2024/03/19 00:25:11;;;;;;;9.33;8.70;;;10.80;1.00;;;;;;5040721;28;20527;-81
2024/03/19 00:27:40;;;;;;;9.73;9.00;;;10.70;99.90;;;;;;5038730;28;20499;-81
2024/03/19 00:30:09;;;;;;;10.53;9.50;;;10.80;99.90;;;;;;5036920;28;21242;-81
2024/03/19 00:32:36;;;;;;;9.67;8.87;;;10.60;99.90;;;;;;5039221;28;20466;-81
2024/03/19 00:35:08;;;;;;;10.50;9.70;;;10.70;1.00;;;;;;5039539;28;20484;-82
2024/03/19 00:37:36;;;;;;;10.20;9.20;;;10.70;99.90;;;;;;5037876;28;20525;-81
2024/03/19 00:40:04;;;;;;;9.47;8.50;;;10.70;99.90;;;;;;5037545;28;20456;-81
2024/03/19 00:42:32;;;;;;;10.07;9.30;;;10.60;99.90;;;;;;5036039;28;20483;-82
2024/03/19 00:45:00;;;;;;;9.53;8.83;;;10.60;74.80;;;;;;5036429;28;20583;-82
2024/03/19 00:47:27;;;;;;;8.70;8.10;;;10.60;6.60;;;;;;5038545;28;20485;-82
2024/03/19 00:49:55;;;;;;;9.30;8.60;;;10.60;1.00;;;;;;5037387;28;20520;-82
2024/03/19 00:52:22;;;;;;;9.83;8.90;;;10.50;1.00;;;;;;5039139;28;20505;-81
2024/03/19 00:54:49;;;;;;;9.07;8.40;;;10.50;51.90;;;;;;5038528;28;20493;-81
2024/03/19 00:57:17;;;;;;;9.60;8.90;;;10.40;1.00;;;;;;5038599;28;20536;-80
2024/03/19 00:59:44;;;;;;;8.60;8.10;;;10.40;1.00;;;;;;5040700;28;20451;-80
2024/03/19 01:02:12;;;;;;;8.33;7.53;;;10.40;1.00;;;;;;5039005;28;20565;-81
2024/03/19 01:04:39;;;;;;;7.47;6.97;;;10.30;1.00;;;;;;5037178;28;20569;-81
2024/03/19 01:07:07;;;;;;;7.60;7.10;;;10.30;1.00;;;;;;5041042;28;20503;-80
2024/03/19 01:09:35;;;;;;;7.13;6.73;;;10.30;1.00;;;;;;5039197;28;21141;-81
2024/03/19 01:12:02;;;;;;;7.30;6.80;;;10.30;1.00;;;;;;5041567;28;20501;-82
2024/03/19 01:14:30;;;;;;;7.17;6.70;;;10.20;1.00;;;;;;5037645;28;20455;-82
2024/03/19 01:16:57;;;;;;;7.67;7.10;;;10.30;1.00;;;;;;5040884;28;20922;-81
2024/03/19 01:19:26;;;;;;;7.33;6.87;;;10.20;1.00;;;;;;5038088;28;20476;-81
2024/03/19 01:21:53;;;;;;;7.00;6.40;;;10.20;1.00;;;;;;5039331;28;20473;-81
2024/03/19 01:24:20;;;;;;;7.43;6.93;;;10.20;1.00;;;;;;5033526;28;20969;-82
2024/03/19 01:26:47;;;;;;;7.43;6.83;;;10.20;1.00;;;;;;5040656;28;20508;-82
2024/03/19 01:29:17;;;;;;;7.80;7.30;;;10.20;1.00;;;;;;5036741;28;20481;-81
2024/03/19 01:31:44;;;;;;;7.37;6.77;;;10.20;93.00;;;;;;5034934;28;20465;-82
2024/03/19 01:34:11;;;;;;;7.07;6.57;;;10.20;99.90;;;;;;5038651;28;20529;-81
2024/03/19 01:36:39;;;;;;;6.77;6.37;;;10.30;99.90;;;;;;5036051;28;20547;-82
2024/03/19 01:39:08;;;;;;;7.10;6.60;;;10.30;99.90;;;;;;5037635;28;20480;-81
2024/03/19 01:41:35;;;;;;;8.10;6.80;;;10.30;94.30;;;;;;5035473;28;20507;-82
2024/03/19 01:44:02;;;;;;;7.20;6.70;;;10.30;99.90;;;;;;5037639;28;20462;-82
2024/03/19 01:46:30;;;;;;;7.40;6.70;;;10.30;99.90;;;;;;5033829;28;20494;-82
2024/03/19 01:48:58;;;;;;;6.37;5.87;;;10.30;1.00;;;;;;5034249;28;20473;-82
2024/03/19 01:51:27;;;;;;;6.00;5.70;;;10.30;1.00;;;;;;5033006;28;20542;-82
2024/03/19 01:53:56;;;;;;;6.00;5.70;;;10.20;1.00;;;;;;5037356;28;20470;-82
2024/03/19 01:56:24;;;;;;;6.03;5.73;;;10.20;99.90;;;;;;5037680;28;20479;-82
2024/03/19 01:58:52;;;;;;;6.00;5.67;;;10.10;99.90;;;;;;5035176;28;20474;-81
2024/03/19 02:01:20;;;;;;;6.77;6.23;;;10.00;99.90;;;;;;5037025;28;20552;-83
2024/03/19 02:03:49;;;;;;;5.63;5.33;;;9.90;99.90;;;;;;5037821;28;20601;-81
2024/03/19 02:06:16;;;;;;;5.50;5.30;;;9.90;99.90;;;;;;5039185;28;20602;-81
2024/03/19 02:09:03;;;;;;;5.80;5.40;;;9.90;99.90;;;;;;5038967;28;20491;-81
2024/03/19 02:11:31;;;;;;;5.57;5.20;;;9.80;99.90;;;;;;5021837;28;20457;-82
2024/03/19 02:14:00;;;;;;;5.20;4.90;;;9.80;99.90;;;;;;5032437;28;20471;-81
2024/03/19 02:16:28;;;;;;;5.80;5.50;;;9.70;99.90;;;;;;5036938;28;20484;-82
2024/03/19 02:18:56;;;;;;;5.70;5.40;;;9.70;99.90;;;;;;5032879;28;20684;-83
2024/03/19 02:21:25;;;;;;;5.37;4.97;;;9.70;99.90;;;;;;5029863;28;21036;-82
2024/03/19 02:23:56;;;;;;;6.13;5.70;;;9.60;99.90;;;;;;5032565;28;20466;-82
2024/03/19 02:26:23;;;;;;;7.07;6.63;;;9.60;99.90;;;;;;5047393;28;20894;-82
2024/03/19 02:28:51;;;;;;;5.50;5.17;;;9.60;1.00;;;;;;5031671;28;20461;-81
2024/03/19 02:31:18;;;;;;;5.73;5.40;;;9.70;99.90;;;;;;5036916;28;20540;-81
2024/03/19 02:33:46;;;;;;;5.83;5.43;;;9.70;99.90;;;;;;5037210;28;20897;-82
2024/03/19 02:36:13;;;;;;;6.13;5.70;;;9.60;99.90;;;;;;5037011;28;21107;-82
2024/03/19 02:38:40;;;;;;;5.80;5.50;;;9.70;99.90;;;;;;5041294;28;20536;-81
2024/03/19 02:41:09;;;;;;;5.53;5.20;;;9.60;99.90;;;;;;5042531;28;20512;-81
2024/03/19 02:43:37;;;;;;;6.30;5.70;;;9.60;99.90;;;;;;5043957;28;20703;-81
2024/03/19 02:46:04;;;;;;;5.90;5.60;;;9.60;99.90;;;;;;5042667;28;20515;-82
2024/03/19 02:48:31;;;;;;;6.00;5.70;;;9.60;99.90;;;;;;5047468;28;20480;-81
2024/03/19 02:50:59;;;;;;;5.97;5.60;;;9.50;99.90;;;;;;5050962;28;21131;-82
2024/03/19 02:53:27;;;;;;;6.17;5.77;;;9.50;99.90;;;;;;5044773;28;20508;-81
2024/03/19 02:55:54;;;;;;;7.20;6.70;;;9.40;99.90;;;;;;5048266;28;20476;-82
2024/03/19 02:58:23;;;;;;;5.90;5.30;;;9.30;99.90;;;;;;5047482;28;20468;-82
2024/03/19 03:00:52;;;;;;;5.23;4.93;;;9.30;99.90;;;;;;5043077;28;20480;-83
2024/03/19 03:03:19;;;;;;;6.10;5.57;;;9.20;99.90;;;;;;5047648;28;20525;-83
2024/03/19 03:05:47;;;;;;;5.13;4.83;;;9.10;99.90;;;;;;5044193;28;21494;-81
2024/03/19 03:08:14;;;;;;;5.47;5.13;;;9.10;99.90;;;;;;5040588;28;21046;-82
2024/03/19 03:10:42;;;;;;;5.10;4.90;;;9.20;99.90;;;;;;5041347;28;20483;-81
2024/03/19 03:13:09;;;;;;;5.50;5.20;;;9.20;99.90;;;;;;5042568;28;20507;-81
2024/03/19 03:15:38;;;;;;;5.67;5.43;;;9.20;99.90;;;;;;5025917;28;20461;-82
2024/03/19 03:18:05;;;;;;;4.73;4.53;;;9.30;99.90;;;;;;5042587;28;20574;-83
2024/03/19 03:20:32;;;;;;;4.90;4.70;;;9.20;99.90;;;;;;5056932;28;20492;-83
2024/03/19 03:22:59;;;;;;;6.00;5.60;;;9.30;99.90;;;;;;5042875;28;20507;-82
2024/03/19 03:25:27;;;;;;;5.33;5.00;;;9.20;81.90;;;;;;5038056;28;20453;-83
2024/03/19 03:27:54;;;;;;;6.13;5.83;;;9.20;99.90;;;;;;5040247;28;20542;-82
2024/03/19 03:30:22;;;;;;;6.20;5.80;;;9.30;99.90;;;;;;5038935;28;20492;-82
2024/03/19 03:32:51;;;;;;;5.73;5.37;;;9.30;99.90;;;;;;5039010;28;20592;-82
2024/03/19 03:35:19;;;;;;;5.47;5.17;;;9.30;99.90;;;;;;5040093;28;20452;-82
2024/03/19 03:37:46;;;;;;;5.70;5.20;;;9.30;99.90;;;;;;5039174;28;20519;-83
2024/03/19 03:40:14;;;;;;;5.57;5.27;;;9.20;53.10;;;;;;5041022;28;20493;-83
2024/03/19 03:42:41;;;;;;;5.90;5.50;;;9.10;92.90;;;;;;5039103;28;20511;-82
2024/03/19 03:45:10;;;;;;;6.00;5.70;;;9.10;98.20;;;;;;5040846;28;20844;-83
2024/03/19 03:47:37;;;;;;;5.83;5.43;;;9.00;99.90;;;;;;5039901;28;20485;-82
2024/03/19 03:50:07;;;;;;;6.30;5.80;;;8.90;99.90;;;;;;5040336;28;20457;-82
2024/03/19 03:52:35;;;;;;;5.73;5.33;;;9.00;99.90;;;;;;5054730;28;21625;-83
2024/03/19 03:55:02;;;;;;;7.23;6.63;;;9.00;99.90;;;;;;5038666;28;20542;-83
2024/03/19 03:57:29;;;;;;;5.50;5.20;;;9.10;99.90;;;;;;5038860;28;20981;-82
2024/03/19 03:59:56;;;;;;;6.07;5.57;;;9.10;99.90;;;;;;5023272;28;20460;-84
2024/03/19 04:02:23;;;;;;;5.37;5.00;;;9.00;99.90;;;;;;5038177;28;20686;-83
2024/03/19 04:04:52;;;;;;;6.30;6.00;;;8.90;99.90;;;;;;5038197;28;20989;-83
2024/03/19 04:07:21;;;;;;;6.03;5.50;;;9.00;99.90;;;;;;5039167;28;20474;-83
2024/03/19 04:09:48;;;;;;;5.87;5.47;;;9.00;99.90;;;;;;5037499;28;20484;-84
2024/03/19 04:12:15;;;;;;;6.30;5.90;;;8.90;99.90;;;;;;5053821;28;20980;-83
2024/03/19 04:14:43;;;;;;;6.20;5.67;;;8.90;99.90;;;;;;5038253;28;20449;-82
2024/03/19 04:17:12;;;;;;;5.40;5.10;;;8.90;99.90;;;;;;5035285;28;21147;-83
2024/03/19 04:19:39;;;;;;;5.93;5.37;;;8.80;99.90;;;;;;5036438;28;20464;-83
2024/03/19 04:22:06;;;;;;;5.57;5.27;;;8.90;99.90;;;;;;5035047;28;20576;-83
2024/03/19 04:24:35;;;;;;;5.70;5.40;;;8.90;99.90;;;;;;5035598;28;20567;-83
2024/03/19 04:27:02;;;;;;;4.90;4.70;;;8.90;99.90;;;;;;5037320;28;20982;-83
2024/03/19 04:29:29;;;;;;;6.17;5.60;;;8.90;99.90;;;;;;5034308;28;20463;-84
2024/03/19 04:31:57;;;;;;;5.00;4.70;;;9.00;99.90;;;;;;5037753;28;20491;-83
2024/03/19 04:34:24;;;;;;;6.27;4.67;;;9.00;99.90;;;;;;5036174;28;21020;-83
2024/03/19 04:36:51;;;;;;;4.40;4.17;;;9.00;99.90;;;;;;5041372;28;20452;-83
2024/03/19 04:39:18;;;;;;;4.60;4.40;;;9.00;99.90;;;;;;5036180;28;20678;-85
2024/03/19 04:41:47;;;;;;;4.50;4.30;;;9.00;99.90;;;;;;5035803;28;20506;-84
2024/03/19 04:44:14;;;;;;;4.30;4.10;;;8.90;99.90;;;;;;5036866;28;20549;-83
2024/03/19 04:46:41;;;;;;;5.03;4.73;;;8.90;53.50;;;;;;5020751;28;20480;-82
2024/03/19 04:49:08;;;;;;;4.67;4.37;;;8.90;70.30;;;;;;5037485;28;20555;-84
2024/03/19 04:51:35;;;;;;;4.40;4.20;;;8.80;45.30;;;;;;5037404;28;20570;-83
2024/03/19 04:54:03;;;;;;;5.13;4.60;;;8.80;1.00;;;;;;5037631;28;20482;-84
2024/03/19 04:56:30;;;;;;;5.20;4.90;;;8.70;1.00;;;;;;5038447;28;20586;-83
2024/03/19 04:58:58;;;;;;;9.43;8.53;;;8.70;1.00;;;;;;5020532;28;20478;-83
2024/03/19 05:01:27;;;;;;;4.80;4.50;;;8.60;1.00;;;;;;5036426;28;20499;-84
2024/03/19 05:03:55;;;;;;;4.53;4.23;;;8.60;1.00;;;;;;5035080;28;20512;-84
2024/03/19 05:06:22;;;;;;;4.80;4.50;;;8.50;9.00;;;;;;5037789;28;20479;-84
2024/03/19 05:08:51;;;;;;;4.60;4.30;;;8.60;59.70;;;;;;5036636;28;21146;-82
2024/03/19 05:11:18;;;;;;;5.03;4.63;;;8.60;83.20;;;;;;5037628;28;21181;-83
2024/03/19 05:13:45;;;;;;;5.07;4.77;;;8.60;99.90;;;;;;5039923;28;20562;-82
2024/03/19 05:16:14;;;;;;;4.73;4.43;;;8.60;65.50;;;;;;5037329;28;20492;-84
2024/03/19 05:18:43;;;;;;;5.30;4.90;;;8.50;18.20;;;;;;5041293;28;20460;-84
2024/03/19 05:21:10;;;;;;;5.30;5.00;;;8.50;13.10;;;;;;5039468;28;20494;-84
2024/03/19 05:23:37;;;;;;;5.20;4.90;;;8.50;2.10;;;;;;5036636;28;21038;-84
2024/03/19 05:26:04;;;;;;;5.13;4.83;;;8.50;5.20;;;;;;5035709;28;20502;-83
2024/03/19 05:28:32;;;;;;;5.37;5.07;;;8.50;9.90;;;;;;5038051;28;20502;-83
2024/03/19 05:30:59;;;;;;;6.23;5.83;;;8.50;1.00;;;;;;5033391;28;20486;-84
2024/03/19 05:33:27;;;;;;;4.87;4.67;;;8.50;30.90;;;;;;5037495;28;20574;-83
2024/03/19 05:35:55;;;;;;;5.23;4.90;;;8.50;1.00;;;;;;5034925;28;20439;-83
2024/03/19 05:38:22;;;;;;;9.00;5.20;;;8.50;1.00;;;;;;5034808;28;20530;-81
2024/03/19 05:40:49;;;;;;;8.27;4.97;;;8.50;1.00;;;;;;5038615;28;20502;-82
2024/03/19 05:43:16;;;;;;;4.77;4.47;;;8.50;1.00;;;;;;5034123;28;20575;-78
2024/03/19 05:45:43;;;;;;;4.97;4.67;;;8.50;1.00;;;;;;5036228;28;20501;-79
2024/03/19 05:48:11;;;;;;;5.17;4.77;;;8.40;1.00;;;;;;5035671;28;20443;-80
2024/03/19 05:50:39;;;;;;;5.03;4.53;;;8.40;1.00;;;;;;5032458;28;20487;-80
2024/03/19 05:53:07;;;;;;;6.17;5.70;;;8.50;1.00;;;;;;5021057;28;20463;-79
2024/03/19 05:55:34;;;;;;;5.50;5.10;;;8.50;1.00;;;;;;5034088;28;20458;-79
2024/03/19 05:58:01;;;;;;;5.37;5.07;;;8.40;1.00;;;;;;5035354;28;20448;-79
2024/03/19 06:00:28;;;;;;;5.87;5.57;;;8.40;1.00;;;;;;5016030;28;20458;-80
2024/03/19 06:02:55;;;;;;;5.90;5.50;;;8.40;1.00;;;;;;5031320;28;20494;-79
2024/03/19 06:05:23;;;;;;;5.30;5.00;;;8.40;1.00;;;;;;5036405;28;20542;-79
2024/03/19 06:07:51;;;;;;;5.60;5.20;;;8.50;1.00;;;;;;5033640;28;20504;-81
2024/03/19 06:10:18;;;;;;;5.77;5.37;;;8.50;96.60;;;;;;5032867;28;20463;-81
2024/03/19 06:12:46;;;;;;;6.00;5.27;;;8.60;99.90;;;;;;5034186;28;20476;-81
2024/03/19 06:15:13;;;;;;;5.63;5.33;;;8.60;50.90;;;;;;5034117;28;20575;-79
2024/03/19 06:17:40;;;;;;;6.13;5.33;;;8.60;19.80;;;;;;5034852;28;20786;-81
2024/03/19 06:20:14;;;;;;;7.53;6.93;;;8.60;1.00;;;;;;5030849;28;20444;-79
2024/03/19 06:22:42;;;;;;;8.00;7.23;;;8.60;1.00;;;;;;5034559;28;20561;-78
2024/03/19 06:25:11;;;;;;;9.93;8.93;;;8.50;21.00;;;;;;5035959;28;20456;-78
2024/03/19 06:27:39;;;;;;;9.00;7.73;;;8.60;31.80;;;;;;5052318;28;20446;-79
2024/03/19 06:30:07;;;;;;;8.83;8.03;;;8.60;99.90;;;;;;5039297;28;20554;-78
2024/03/19 06:32:35;;;;;;;8.43;7.70;;;8.70;99.90;;;;;;5031877;28;21059;-82
2024/03/19 06:35:04;;;;;;;8.83;8.03;;;8.80;99.90;;;;;;5028938;28;20466;-78
2024/03/19 06:37:32;;;;;;;8.40;7.70;;;9.00;99.90;;;;;;5034461;28;21120;-79
2024/03/19 06:39:59;;;;;;;8.70;7.90;;;9.10;62.20;;;;;;5034324;28;20443;-79
2024/03/19 06:42:27;;;;;;;7.70;7.20;;;9.10;23.50;;;;;;5036640;28;20484;-79
2024/03/19 06:44:54;;;;;;;8.63;7.93;;;9.10;1.00;;;;;;5032395;28;20466;-79
2024/03/19 06:47:23;;;;;;;9.20;7.03;;;9.20;11.90;;;;;;5033862;28;20578;-79
2024/03/19 06:49:50;;;;;;;7.60;6.83;;;9.20;33.20;;;;;;5034874;28;20536;-78
2024/03/19 06:52:17;;;;;;;9.40;7.80;;;9.20;86.30;;;;;;5033415;28;20563;-78
2024/03/19 06:54:44;;;;;;;14.33;12.03;;;9.30;92.00;;;;;;5032441;28;20580;-79
2024/03/19 06:57:11;;;;;;;14.53;10.50;;;9.30;99.30;;;;;;5035556;28;20455;-78
2024/03/19 06:59:40;;;;;;;13.20;9.80;;;9.30;99.90;;;;;;5033826;28;20484;-78
2024/03/19 07:02:09;;;;;;;7.80;6.80;;;9.40;99.90;;;;;;5031271;28;20527;-79
2024/03/19 07:04:36;;;;;;;8.80;7.80;;;9.50;98.00;;;;;;5017340;28;20504;-79
2024/03/19 07:07:03;;;;;;;8.27;7.57;;;9.50;99.90;;;;;;5034938;28;20470;-79
2024/03/19 07:09:32;;;;;;;8.63;7.77;;;9.60;99.90;;;;;;5032214;28;20460;-79
2024/03/19 07:11:59;;;;;;;8.30;7.70;;;9.80;99.90;;;;;;5032657;28;20474;-79
2024/03/19 07:14:26;;;;;;;9.10;8.33;;;9.80;99.90;;;;;;5032589;28;20998;-79
2024/03/19 07:16:55;;;;;;;8.93;8.23;;;9.80;99.90;;;;;;5032903;28;20487;-79
2024/03/19 07:19:22;;;;;;;10.23;8.30;;;10.00;99.90;;;;;;5034225;28;20460;-79
2024/03/19 07:21:49;;;;;;;11.63;7.40;;;10.10;99.90;;;;;;5035400;28;20521;-80
2024/03/19 07:24:16;;;;;;;8.20;6.90;;;10.20;99.90;;;;;;5036725;28;20487;-79
2024/03/19 07:26:44;;;;;;;7.23;6.57;;;10.00;99.90;;;;;;5037859;28;20536;-79
2024/03/19 07:29:11;;;;;;;6.90;6.33;;;9.90;99.90;;;;;;5033202;28;20541;-78
2024/03/19 07:31:42;;;;;;;7.40;6.90;;;9.90;99.90;;;;;;5036259;28;20460;-79
2024/03/19 07:34:10;;;;;;;7.30;6.57;;;9.90;99.90;;;;;;5038798;28;20444;-79
2024/03/19 07:36:39;;;;;;;6.60;6.03;;;10.00;99.90;;;;;;5037533;28;20475;-80
2024/03/19 07:39:11;;;;;;;7.37;6.80;;;9.90;99.90;;;;;;5036450;28;20561;-79
2024/03/19 07:41:39;;;;;;;7.93;7.33;;;9.90;99.90;;;;;;5036195;28;20613;-79
2024/03/19 07:44:06;;;;;;;8.67;7.77;;;10.00;99.90;;;;;;5037290;28;21460;-79
2024/03/19 07:46:33;;;;;;;7.60;6.90;;;10.10;99.90;;;;;;5034411;28;20546;-80
2024/03/19 07:49:01;;;;;;;7.30;6.90;;;10.30;1.00;;;;;;5034348;28;20485;-80
2024/03/19 07:51:30;;;;;;;8.30;7.47;;;10.40;1.00;;;;;;5037117;28;20609;-80
2024/03/19 07:53:57;;;;;;;7.03;6.60;;;10.60;1.00;;;;;;5036455;28;20464;-82
2024/03/19 07:56:29;;;;;;;7.77;7.27;;;10.80;99.90;;;;;;5040468;28;20958;-82
2024/03/19 07:58:56;;;;;;;7.40;6.90;;;11.10;99.90;;;;;;5039866;28;20615;-81
2024/03/19 08:01:23;;;;;;;7.77;7.27;;;11.30;99.90;;;;;;5040601;28;20563;-81
2024/03/19 08:03:50;;;;;;;6.77;6.37;;;11.50;99.90;;;;;;5037275;28;20530;-82
2024/03/19 08:06:18;;;;;;;6.83;6.53;;;11.50;99.90;;;;;;5040631;28;20451;-79
2024/03/19 08:08:46;;;;;;;7.10;6.73;;;11.80;99.90;;;;;;5033186;28;20461;-80
2024/03/19 08:11:14;;;;;;;7.47;6.90;;;12.20;99.90;;;;;;5019534;28;21201;-80
2024/03/19 08:13:41;;;;;;;7.47;7.07;;;12.60;10.30;;;;;;5036149;28;20503;-79
2024/03/19 08:16:08;;;;;;;7.90;7.40;;;12.70;1.00;;;;;;5039910;28;20461;-79
2024/03/19 08:18:35;;;;;;;7.60;7.20;;;12.90;1.00;;;;;;5039847;28;20453;-79
2024/03/19 08:21:03;;;;;;;6.80;6.40;;;12.90;1.00;;;;;;5019793;28;20811;-80
2024/03/19 08:23:32;;;;;;;7.30;6.90;;;12.90;1.00;;;;;;5035644;28;20508;-79
2024/03/19 08:26:00;;;;;;;6.77;6.47;;;12.90;1.00;;;;;;5023979;28;20502;-80
2024/03/19 08:28:28;;;;;;;6.60;6.30;;;12.80;1.00;;;;;;5034462;28;20540;-79
2024/03/19 08:30:55;;;;;;;6.60;6.30;;;12.80;1.00;;;;;;5036515;28;20896;-79
2024/03/19 08:33:22;;;;;;;6.47;6.07;;;12.80;1.00;;;;;;5036515;28;20463;-80
2024/03/19 08:35:50;;;;;;;6.37;5.97;;;12.80;1.00;;;;;;5014659;28;20450;-80
2024/03/19 08:38:17;;;;;;;6.60;6.20;;;13.00;1.00;;;;;;5035482;28;20485;-79
2024/03/19 08:40:44;;;;;;;6.93;6.43;;;13.30;1.00;;;;;;5035582;28;21241;-78
2024/03/19 08:43:13;;;;;;;7.10;6.80;;;13.50;1.00;;;;;;5035373;28;21000;-80
2024/03/19 08:45:40;;;;;;;6.93;6.60;;;13.90;1.00;;;;;;5036111;28;20493;-79
2024/03/19 08:48:08;;;;;;;6.67;6.30;;;14.10;1.00;;;;;;5033611;28;20513;-79
2024/03/19 08:50:35;;;;;;;6.83;6.53;;;14.30;1.00;;;;;;5035267;28;20549;-79
2024/03/19 08:53:02;;;;;;;7.20;6.90;;;14.30;1.00;;;;;;5018839;28;21169;-78
2024/03/19 08:55:30;;;;;;;7.60;7.20;;;14.30;99.90;;;;;;5036526;28;20508;-79
2024/03/19 08:57:58;;;;;;;7.07;6.57;;;14.20;99.90;;;;;;5034192;28;20538;-79
2024/03/19 09:00:26;;;;;;;6.40;6.10;;;14.10;99.90;;;;;;5035240;28;20550;-79
2024/03/19 09:02:53;;;;;;;6.10;5.90;;;14.00;99.90;;;;;;5034035;28;20502;-79
2024/03/19 09:05:21;;;;;;;6.70;6.30;;;13.90;99.90;;;;;;5048311;28;20973;-78
2024/03/19 09:07:48;;;;;;;7.13;6.73;;;13.80;99.90;;;;;;5036696;28;20459;-80
2024/03/19 09:10:15;;;;;;;7.17;6.77;;;13.80;99.90;;;;;;5034113;28;21357;-79
2024/03/19 09:12:42;;;;;;;6.87;6.47;;;13.70;99.90;;;;;;5036063;28;20466;-79
2024/03/19 09:15:11;;;;;;;6.30;6.00;;;13.80;99.90;;;;;;5029435;28;20530;-79
2024/03/19 09:17:40;;;;;;;5.53;5.33;;;13.90;99.90;;;;;;5037055;28;20483;-79
2024/03/19 09:20:09;;;;;;;5.57;5.27;;;14.00;99.90;;;;;;5035910;28;20545;-79
2024/03/19 09:22:36;;;;;;;6.50;6.20;;;14.10;99.90;;;;;;5041657;28;20487;-79
2024/03/19 09:25:04;;;;;;;5.63;5.43;;;14.10;99.90;;;;;;5036334;28;20583;-80
2024/03/19 09:27:31;;;;;;;5.30;5.10;;;14.40;99.90;;;;;;5036946;28;20491;-79
2024/03/19 09:29:58;;;;;;;5.50;5.20;;;14.60;99.90;;;;;;5035683;28;20537;-80
2024/03/19 09:32:25;;;;;;;5.10;4.87;;;15.10;99.90;;;;;;5036033;28;20492;-80
2024/03/19 09:34:53;;;;;;;6.03;5.53;;;14.90;99.90;;;;;;5036953;28;20528;-80
2024/03/19 09:37:21;;;;;;;6.10;5.77;;;14.90;99.90;;;;;;5036535;28;20821;-80
2024/03/19 09:39:48;;;;;;;5.07;4.97;;;15.00;99.90;;;;;;5032979;28;20540;-80
2024/03/19 09:42:17;;;;;;;5.60;5.40;;;14.70;99.90;;;;;;5034774;28;20547;-79
2024/03/19 09:44:45;;;;;;;6.13;5.73;;;14.60;99.90;;;;;;5036315;28;20574;-80
2024/03/19 09:47:16;;;;;;;5.13;4.80;;;14.50;99.90;;;;;;5035321;28;20551;-79
2024/03/19 09:49:43;;;;;;;5.60;5.40;;;14.70;99.90;;;;;;5033070;28;20436;-79
2024/03/19 09:52:15;;;;;;;5.50;5.30;;;14.90;99.90;;;;;;5034935;28;21094;-79
2024/03/19 09:54:42;;;;;;;5.63;5.23;;;14.80;99.90;;;;;;5033895;28;21014;-79
2024/03/19 09:57:14;;;;;;;5.37;5.07;;;15.00;99.90;;;;;;5034460;28;20487;-80
2024/03/19 09:59:41;;;;;;;4.90;4.70;;;15.70;99.90;;;;;;5033821;28;20981;-80
2024/03/19 10:02:17;;;;;;;5.50;5.27;;;16.40;99.90;;;;;;5034505;28;20555;-79
2024/03/19 10:04:47;;;;;;;5.60;5.20;;;17.10;99.90;;;;;;5033978;28;20489;-80
2024/03/19 10:07:16;;;;;;;5.57;5.23;;;17.40;99.90;;;;;;5034505;28;20610;-79
2024/03/19 10:09:45;;;;;;;5.13;4.93;;;17.10;99.90;;;;;;5032771;28;20490;-79
2024/03/19 10:12:13;;;;;;;5.00;4.80;;;17.50;99.90;;;;;;5039039;28;20565;-79
2024/03/19 10:14:40;;;;;;;4.30;4.10;;;17.30;99.90;;;;;;5040230;28;20483;-79
2024/03/19 10:17:09;;;;;;;4.27;4.07;;;16.90;99.90;;;;;;5035914;28;20547;-79
2024/03/19 10:19:37;;;;;;;4.33;4.20;;;16.80;99.90;;;;;;5034119;28;20490;-79
2024/03/19 10:22:05;;;;;;;3.87;3.77;;;16.70;99.90;;;;;;5034027;28;20578;-79
2024/03/19 10:24:34;;;;;;;4.33;4.23;;;17.10;99.90;;;;;;5032935;28;20520;-79
2024/03/19 10:27:01;;;;;;;4.13;4.00;;;17.30;99.90;;;;;;5033762;28;20546;-80
2024/03/19 10:29:28;;;;;;;3.70;3.60;;;17.50;99.90;;;;;;5033049;28;20486;-80
2024/03/19 10:31:56;;;;;;;3.70;3.60;;;17.40;99.90;;;;;;5038497;28;21028;-84
2024/03/19 10:34:24;;;;;;;3.90;3.70;;;17.20;99.90;;;;;;5024140;28;20447;-83
2024/03/19 10:36:53;;;;;;;4.20;3.90;;;17.00;99.90;;;;;;5044863;28;21266;-85
2024/03/19 10:39:22;;;;;;;3.97;3.80;;;16.90;99.90;;;;;;5021124;28;20550;-84
2024/03/19 10:41:51;;;;;;;3.50;3.30;;;17.00;99.90;;;;;;5041651;28;20498;-85
2024/03/19 10:44:20;;;;;;;3.00;2.90;;;16.90;99.90;;;;;;5040431;28;20472;-84
2024/03/19 10:46:48;;;;;;;3.03;2.93;;;16.80;99.90;;;;;;5044034;28;20488;-85
2024/03/19 10:49:16;;;;;;;3.50;3.40;;;17.00;99.90;;;;;;5043321;28;20446;-85
2024/03/19 10:51:45;;;;;;;3.33;3.23;;;17.20;99.90;;;;;;5041866;28;20460;-84
2024/03/19 10:54:15;;;;;;;3.40;3.30;;;17.30;99.90;;;;;;5041163;28;20474;-84
2024/03/19 10:56:43;;;;;;;3.50;3.40;;;17.30;99.90;;;;;;5046531;28;20451;-84
2024/03/19 10:59:14;;;;;;;3.43;3.33;;;17.40;99.90;;;;;;5047095;28;20451;-84
2024/03/19 11:01:46;;;;;;;3.70;3.60;;;17.60;99.90;;;;;;5031797;28;20477;-86
2024/03/19 11:04:15;;;;;;;3.90;3.80;;;17.70;99.90;;;;;;5049125;28;20463;-85
2024/03/19 11:06:42;;;;;;;3.10;3.00;;;17.70;99.90;;;;;;5043920;28;20500;-84
2024/03/19 11:09:19;;;;;;;2.93;2.83;;;17.80;99.90;;;;;;5048640;28;20455;-83
2024/03/19 11:11:51;;;;;;;3.70;3.60;;;17.80;99.90;;;;;;5061315;28;20467;-85
2024/03/19 11:14:21;;;;;;;4.07;3.77;;;17.80;99.90;;;;;;5044390;28;20456;-84
2024/03/19 11:16:50;;;;;;;3.93;3.67;;;17.80;99.90;;;;;;5045978;28;20442;-85
2024/03/19 11:19:21;;;;;;;3.60;3.50;;;17.90;99.90;;;;;;5044584;28;20439;-86
2024/03/19 11:21:50;;;;;;;3.00;2.80;;;17.90;99.90;;;;;;5045762;28;20605;-85
2024/03/19 11:24:24;;;;;;;2.87;2.67;;;17.90;99.90;;;;;;5046084;28;20454;-86
2024/03/19 11:26:54;;;;;;;3.23;3.13;;;17.90;99.90;;;;;;5044273;28;20483;-86
2024/03/19 11:29:27;;;;;;;3.10;3.00;;;17.90;99.90;;;;;;5043809;28;20490;-85
2024/03/19 11:31:57;;;;;;;3.00;2.73;;;17.80;99.90;;;;;;5042235;28;20471;-85
2024/03/19 11:34:25;;;;;;;2.63;2.43;;;17.80;99.90;;;;;;5047545;28;20446;-85
2024/03/19 11:36:54;;;;;;;2.87;2.77;;;17.80;99.90;;;;;;5045494;28;20475;-85
2024/03/19 11:39:22;;;;;;;2.80;2.70;;;17.80;99.90;;;;;;5046509;28;20546;-84
2024/03/19 11:41:49;;;;;;;3.40;3.20;;;17.80;99.90;;;;;;5048452;28;20542;-85
2024/03/19 11:44:19;;;;;;;3.23;3.03;;;17.80;99.90;;;;;;5043743;28;20479;-85
2024/03/19 11:46:50;;;;;;;3.23;3.13;;;17.90;99.90;;;;;;5044733;28;20544;-86
2024/03/19 11:49:23;;;;;;;4.33;3.07;;;17.80;99.90;;;;;;5041989;28;20482;-86
2024/03/19 11:51:58;;;;;;;4.07;3.83;;;17.80;99.90;;;;;;5041862;28;20467;-85
2024/03/19 11:54:25;;;;;;;3.50;3.20;;;17.80;99.90;;;;;;5048065;28;20499;-85
2024/03/19 11:56:54;;;;;;;5.10;3.23;;;17.80;99.90;;;;;;5043627;28;20499;-85
2024/03/19 11:59:24;;;;;;;3.60;3.40;;;17.80;99.90;;;;;;5043632;28;20528;-85
2024/03/19 12:01:56;;;;;;;3.70;3.50;;;17.90;99.90;;;;;;5046318;28;21028;-85
2024/03/19 12:04:24;;;;;;;3.70;3.40;;;17.90;99.90;;;;;;5045968;28;20452;-86
2024/03/19 12:06:51;;;;;;;3.30;3.10;;;17.90;99.90;;;;;;5046131;28;20451;-85
2024/03/19 12:09:21;;;;;;;3.80;3.70;;;17.90;99.90;;;;;;5044655;28;21328;-85
2024/03/19 12:11:49;;;;;;;3.73;3.50;;;17.90;99.90;;;;;;5039829;28;20467;-85
2024/03/19 12:14:20;;;;;;;4.30;3.90;;;17.90;99.90;;;;;;5042851;28;20529;-85
2024/03/19 12:16:49;;;;;;;4.00;3.80;;;17.80;99.90;;;;;;5027774;28;20471;-85
2024/03/19 12:19:19;;;;;;;3.37;3.27;;;17.80;99.90;;;;;;5045452;28;21033;-85
2024/03/19 12:21:48;;;;;;;3.40;3.30;;;17.80;99.90;;;;;;5042239;28;20443;-83
2024/03/19 12:24:16;;;;;;;4.03;3.83;;;17.80;99.90;;;;;;5046219;28;21004;-85
2024/03/19 12:26:45;;;;;;;3.97;3.77;;;17.80;99.90;;;;;;5031415;28;20467;-83
2024/03/19 12:29:14;;;;;;;3.37;3.17;;;17.70;99.90;;;;;;5042418;28;20863;-85
2024/03/19 12:31:48;;;;;;;3.53;3.33;;;17.70;99.90;;;;;;5046965;28;20538;-85
2024/03/19 12:34:37;;;;;;;3.70;3.60;;;17.60;99.90;;;;;;5046578;28;20440;-85
2024/03/19 12:37:06;;;;;;;3.77;3.57;;;17.50;99.90;;;;;;5036479;28;20492;-82
2024/03/19 12:39:33;;;;;;;3.43;3.23;;;17.50;99.90;;;;;;5035558;28;20452;-82
2024/03/19 12:42:00;;;;;;;3.73;3.50;;;17.20;99.90;;;;;;5035877;28;20571;-82
2024/03/19 12:44:29;;;;;;;3.50;3.30;;;17.10;99.90;;;;;;5037928;28;20454;-82
2024/03/19 12:46:56;;;;;;;3.77;3.57;;;16.90;99.90;;;;;;5035502;28;20539;-83
2024/03/19 12:49:25;;;;;;;3.40;3.20;;;16.70;99.90;;;;;;5034007;28;20492;-83
2024/03/19 12:51:53;;;;;;;3.50;3.30;;;16.90;99.90;;;;;;5036671;28;21084;-82
2024/03/19 12:54:21;;;;;;;3.93;3.73;;;17.00;99.90;;;;;;5035703;28;20470;-83
2024/03/19 12:56:48;;;;;;;3.60;3.50;;;17.10;99.90;;;;;;5037623;28;20453;-83